Tiempo atmosférico en la estación meteorológica de Quintana del Castillo, Villameca, León (995 m.)



Fecha
DESCASC
Temp. máxima en grados centígrados (hora)
DESCASC
Temp. mínima en grados centígrados (hora)
DESCASC
Temp. media en grados centígrados
DESCASC
Racha de viento máxima en m/sg (hora)
DESCASC
Velocidad máxima media en intervalos de 10 minutos(hora)
DESCASC
Precipitaciones diarias en mm
DESCASC
Precipitaciones de 00:00 a 06:00 en mm
DESCASC
Precipitaciones de 06:00 a 12:00 en mm
DESCASC
Precipitaciones de 12:00 a 18:00 en mm
DESCASC
Precipitaciones de 18:00 a 24:00 en mm
DESCASC
28-02-2021 11.3 (16:10) -0.6 (08:20) 5.4 6.39 (16:00) 3.61 (00:20) 0 0 0 0 0
27-02-2021 15.3 (16:20) 2 (07:00) 8.7 5.56 (14:40) 3.89 (02:10) 0 0 0 0 0
26-02-2021 14.9 (15:00) 4 (08:00) 9.4 9.17 (16:00) 3.61 (15:40) 0.2 0.2 0 0 0
25-02-2021 7.9 (16:50) 5.4 (00:00) 6.7 5.28 (10:00) 3.33 (10:30) 0.2 0 0.2 0 0
24-02-2021 12.3 (16:30) 1.3 (00:00) 6.8 7.78 (14:10) 3.89 (14:10) 0 0 0 0 0
23-02-2021 10.6 (17:00) -0.8 (-00:0) 4.9 8.33 (13:20) 3.61 (13:30) 0 0 0 0 0
22-02-2021 10 (17:00) -0.4 (00:00) 4.8 7.78 (16:00) 4.72 (09:30) 0.2 0.2 0 0 0
21-02-2021 7 (00:00) 1.6 (00:00) 4.3 14.17 (00:20) 6.94 (12:10) 7.4 0.2 4.4 2.8 0
20-02-2021 7.7 (02:20) 5.7 (00:00) 6.7 12.5 (08:20) 6.11 (02:00) 8 0 0 3.4 4.6
19-02-2021 8.9 (12:50) 2.7 (00:00) 5.8 10.28 (22:30) 5 (13:00) 0 0 0 0 0
18-02-2021 8.3 (16:30) 4 (00:00) 6.2 12.78 (16:50) 7.22 (13:50) 4.8 0.2 4 0.6 0
17-02-2021 9 (16:50) -0.7 (-00:0) 4.2 10 (19:40) 4.44 (19:30) 0.2 0 0 0 0.2
16-02-2021 9 (16:50) 2.2 (00:00) 5.6 11.67 (12:30) 6.67 (12:30) 1.2 0 0.2 0.8 0.2
15-02-2021 12.8 (16:50) 1.7 (00:00) 7.3 7.22 (15:20) 3.61 (14:50) 0 0 0 0 0
14-02-2021 7.6 (12:50) 2.3 (00:00) 4.9 5 (01:10) 3.61 (05:10) 0 0 0 0 0
13-02-2021 11 (17:00) 2.1 (00:00) 6.5 10.28 (15:50) 7.22 (13:40) 0 0 0 0 0
12-02-2021 9.8 (16:50) 3 (00:00) 6.4 13.89 (04:00) 8.06 (13:40) 5.4 5.2 0.2 0 0
11-02-2021 9.5 (18:30) 3.4 (00:00) 6.5 4.17 (00:50) 2.78 (01:50) 3.2 0.6 0.2 0.2 2.2
10-02-2021 6.2 (16:20) 0.1 (00:00) 3.1 16.94 (07:10) 9.44 (07:40) 7 2.4 4.6 0 0
09-02-2021 5.1 (16:30) 0.7 (00:00) 2.9 11.94 (22:00) 7.78 (21:30) 17 1.8 11.6 1 2.6
08-02-2021 4.6 (18:00) 1.9 (00:00) 3.2 12.22 (13:50) 7.5 (12:30) 8.8 3.6 2.8 1 1.4
07-02-2021 2.7 (16:40) -1.8 (-00:0) 0.5 10.56 (14:20) 6.67 (14:20) 3.6 0 0 0.4 3.2
06-02-2021 5.8 (16:00) -0.7 (-00:0) 2.6 16.94 (04:50) 11.94 (01:50) 2.6 2.4 0.2 0 0
05-02-2021 6.8 (16:40) 3.2 (00:00) 5 15 (23:50) 10.83 (23:50) 3.2 0 0.4 0.8 2
04-02-2021 5.1 (12:50) 3.1 (00:00) 4.1 5.83 (00:10) 2.78 (00:10) 3.4 0 0.2 2.2 1
03-02-2021 8.2 (14:20) 4.6 (00:00) 6.4 13.61 (06:30) 8.33 (06:20) 3.6 2.4 0.4 0.6 0.2
02-02-2021 9.2 (14:40) 6.2 (00:00) 7.7 7.22 (16:40) 3.61 (17:30) 6.2 0 0 3.2 3
01-02-2021 11 (15:10) 6.7 (00:00) 8.8 17.78 (10:50) 10.83 (03:40) 0.8 0 0 0 0.8
31-01-2021 11.7 (16:00) 3.3 (00:00) 7.5 21.39 (01:10) 13.61 (03:30) 4 2.2 0.4 0 1.4
30-01-2021 7.7 (00:00) 2.1 (00:00) 4.9 23.33 (01:40) 13.61 (01:30) 17.2 6.4 3.6 5.6 1.6

Gráficas

Temp. máximas Temp. mínimas Temp. medias Precipitaciones Rachas de viento máximas Velocidades máximas media en intervalos de 10 minutos

Datos horarios

Fecha y hora oficial Temperatura (ºC) Velocidad del viento (km/h) Dirección del viento Racha (km/h) Dirección de racha Precipitación (mm) Presión (hPa) Tendencia (hPa) Humedad (%)
2021-02-28 23:00:00 4.1 0 Calma 5 Norte 0 -- -- 85
2021-02-28 22:00:00 4.6 0 Calma 11 Norte 0 -- -- 79
2021-02-28 21:00:00 3.3 8 Norte 10 Norte 0 -- -- 83
2021-02-28 20:00:00 5.4 4 Norte 7 Norte 0 -- -- 75
2021-02-28 19:00:00 8.8 3 Sur 15 Sudoeste 0 -- -- 55
2021-02-28 18:00:00 10.3 9 Sudoeste 19 Sudoeste 0 -- -- 48
2021-02-28 17:00:00 11 9 Sur 21 Sur 0 -- -- 47
2021-02-28 16:00:00 11.2 11 Sudoeste 23 Sudoeste 0 -- -- 48
2021-02-28 15:00:00 10.1 10 Sur 19 Sur 0 -- -- 45
2021-02-28 14:00:00 9.8 8 Sur 20 Sur 0 -- -- 45
2021-02-28 13:00:00 8.7 9 Sur 18 Sudoeste 0 -- -- 53
2021-02-28 12:00:00 7.3 8 Sur 14 Sudoeste 0 -- -- 61
2021-02-28 11:00:00 6.7 5 Sur 11 Sur 0 -- -- 61
2021-02-28 10:00:00 4.3 0 Calma 13 Norte 0 -- -- 78
2021-02-28 09:00:00 0.7 12 Norte 14 Norte 0 -- -- 86
2021-02-28 08:00:00 -0.4 10 Norte 13 Norte 0 -- -- 91
2021-02-28 07:00:00 -0.3 9 Norte 11 Norte 0 -- -- 92
2021-02-28 06:00:00 0.4 7 Norte 13 Norte 0 -- -- 92
2021-02-28 05:00:00 1 8 Norte 16 Norte 0 -- -- 90
2021-02-28 04:00:00 1.4 10 Norte 11 Norte 0 -- -- 90
2021-02-28 03:00:00 2.3 3 Este 15 Norte 0 -- -- 80
2021-02-28 02:00:00 3.3 8 Norte 12 Norte 0 -- -- 82
2021-02-28 01:00:00 2.6 12 Norte 19 Norte 0 -- -- 84
2021-02-28 00:00:00 2.7 14 Norte 17 Norte 0 -- -- 86
2021-02-27 23:00:00 3.2 12 Norte 15 Norte 0 -- -- 86
2021-02-27 22:00:00 4.4 8 Norte 13 Norte 0 -- -- 86
2021-02-27 21:00:00 5.7 12 Norte 14 Norte 0 -- -- 83
2021-02-27 20:00:00 6.7 9 Norte 10 Norte 0 -- -- 82
2021-02-27 19:00:00 11.3 0 Calma 12 Sudoeste 0 -- -- 64
2021-02-27 18:00:00 13.9 7 Sudoeste 14 Sudoeste 0 -- -- 49
2021-02-27 17:00:00 15.1 5 Sur 15 Sudoeste 0 -- -- 48
2021-02-27 16:00:00 15 9 Sudoeste 17 Sur 0 -- -- 50
2021-02-27 15:00:00 14.9 7 Sur 20 Sudoeste 0 -- -- 48
2021-02-27 14:00:00 14.4 8 Sur 20 Sur 0 -- -- 46
2021-02-27 13:00:00 13.5 6 Sur 14 Sur 0 -- -- 49
2021-02-27 12:00:00 11.5 5 Sudoeste 10 Oeste 0 -- -- 60
2021-02-27 11:00:00 8.9 3 Sudoeste 6 Sur 0 -- -- 75
2021-02-27 10:00:00 4.5 0 Calma 14 Norte 0 -- -- 89
2021-02-27 09:00:00 2.3 13 Norte 15 Norte 0 -- -- 92
2021-02-27 08:00:00 2 11 Norte 13 Norte 0 -- -- 93
2021-02-27 07:00:00 2 10 Norte 12 Norte 0 -- -- 93
2021-02-27 06:00:00 2.5 10 Norte 13 Norte 0 -- -- 93
2021-02-27 05:00:00 2.7 10 Norte 16 Norte 0 -- -- 93
2021-02-27 04:00:00 3 11 Norte 14 Norte 0 -- -- 94
2021-02-27 03:00:00 3.6 10 Norte 17 Norte 0 -- -- 93
2021-02-27 02:00:00 3.3 12 Norte 14 Norte 0 -- -- 94
2021-02-27 01:00:00 3.9 11 Norte 16 Norte 0 -- -- 92
2021-02-27 00:00:00 4.4 11 Norte 13 Norte 0 -- -- 92
2021-02-26 23:00:00 5 11 Norte 15 Norte 0 -- -- 91
2021-02-26 22:00:00 5.7 12 Norte 15 Norte 0 -- -- 90
2021-02-26 21:00:00 6.6 8 Norte 10 Norte 0 -- -- 89
2021-02-26 20:00:00 8.7 4 Sudeste 9 Sudoeste 0 -- -- 80
2021-02-26 19:00:00 11 4 Sur 15 Sur 0 -- -- 70
2021-02-26 18:00:00 12.9 8 Sudoeste 20 Sur 0 -- -- 63
2021-02-26 17:00:00 13.8 9 Sur 21 Sur 0 -- -- 61
2021-02-26 16:00:00 14.1 10 Sur 33 Sudeste 0 -- -- 57
2021-02-26 15:00:00 14.9 6 Sudoeste 21 Sur 0 -- -- 59
2021-02-26 14:00:00 13.5 8 Sur 17 Sur 0 -- -- 60
2021-02-26 13:00:00 12.3 8 Sur 17 Sur 0 -- -- 62
2021-02-26 12:00:00 10.6 2 Sudeste 9 Oeste 0 -- -- 71
2021-02-26 11:00:00 9.1 3 Sur 6 Sur 0 -- -- 79
2021-02-26 10:00:00 6.3 0 Calma 6 Norte 0 -- -- 90
2021-02-26 09:00:00 4.6 3 Norte 11 Norte 0 -- -- 92
2021-02-26 08:00:00 4 8 Norte 11 Norte 0 -- -- 95
2021-02-26 07:00:00 5 6 Norte 9 Norte 0 -- -- 93
2021-02-26 06:00:00 5.6 5 Norte 8 Norte 0 -- -- 91
2021-02-26 05:00:00 5.6 3 Norte 8 Norte 0 -- -- 91
2021-02-26 04:00:00 5.2 6 Norte 9 Norte 0 -- -- 92
2021-02-26 03:00:00 4.9 8 Norte 13 Norte 0.2 -- -- 92
2021-02-26 02:00:00 5 8 Norte 12 Norte 0 -- -- 91
2021-02-26 01:00:00 5 6 Norte 11 Norte 0 -- -- 94
2021-02-26 00:00:00 5.4 8 Norte 10 Norte 0 -- -- 93
2021-02-25 23:00:00 6.4 10 Norte 14 Norte 0 -- -- 91
2021-02-25 22:00:00 6.5 5 Norte 10 Norte 0 -- -- 91
2021-02-25 21:00:00 7.5 9 Este 17 Nordeste 0 -- -- 86
2021-02-25 20:00:00 7.2 7 Nordeste 10 Nordeste 0 -- -- 90
2021-02-25 19:00:00 7.8 5 Este 11 Este 0 -- -- 86
2021-02-25 18:00:00 7.8 7 Este 17 Sudeste 0 -- -- 87
2021-02-25 17:00:00 7.8 10 Sudeste 17 Sudeste 0 -- -- 85
2021-02-25 16:00:00 7.5 8 Sudeste 16 Este 0 -- -- 87
2021-02-25 15:00:00 7.1 6 Sudeste 15 Sudeste 0 -- -- 89
2021-02-25 14:00:00 6.7 5 Sudeste 17 Sur 0 -- -- 90
2021-02-25 13:00:00 6.7 5 Sudeste 15 Sudeste 0 -- -- 91
2021-02-25 12:00:00 6.7 7 Sudeste 17 Sudeste 0 -- -- 91
2021-02-25 11:00:00 6.1 5 Sudeste 18 Este 0 -- -- 94
2021-02-25 10:00:00 5.9 10 Sudeste 19 Este 0 -- -- 95
2021-02-25 09:00:00 5.7 8 Sudeste 14 Sudeste 0 -- -- 96
2021-02-25 08:00:00 5.8 8 Este 14 Este 0.2 -- -- 96
2021-02-25 07:00:00 6.1 6 Este 10 Este 0 -- -- 96
2021-02-25 06:00:00 6 3 Nordeste 9 Norte 0 -- -- 96
2021-02-25 05:00:00 6.1 5 Norte 10 Norte 0 -- -- 94
2021-02-25 04:00:00 6.3 3 Este 6 Norte 0 -- -- 93
2021-02-25 03:00:00 6.8 4 Sudeste 13 Sudeste 0 -- -- 87
2021-02-25 02:00:00 6.4 6 Norte 8 Norte 0 -- -- 88
2021-02-25 01:00:00 7.2 4 Sudeste 13 Sudeste 0 -- -- 83
2021-02-25 00:00:00 7.8 2 Sudeste 8 Sudeste 0 -- -- 80
2021-02-24 23:00:00 7.6 0 Calma 9 Sur 0 -- -- 82
2021-02-24 22:00:00 8.7 5 Sur 11 Sur 0 -- -- 75
2021-02-24 21:00:00 9.2 5 Sur 16 Sur 0 -- -- 74
2021-02-24 20:00:00 9.6 10 Sur 21 Sur 0 -- -- 70
2021-02-24 19:00:00 10.4 8 Sudoeste 23 Sudoeste 0 -- -- 67
2021-02-24 18:00:00 10.8 9 Sudoeste 23 Sudoeste 0 -- -- 65
2021-02-24 17:00:00 11.8 11 Sur 24 Sur 0 -- -- 60
2021-02-24 16:00:00 10.5 7 Sur 24 Sudoeste 0 -- -- 63
2021-02-24 15:00:00 11 13 Sur 28 Sur 0 -- -- 59
2021-02-24 14:00:00 10.9 13 Sur 24 Sur 0 -- -- 62
2021-02-24 13:00:00 8.9 9 Sudeste 22 Sudeste 0 -- -- 73
2021-02-24 12:00:00 8.1 11 Sudeste 23 Sudeste 0 -- -- 75
2021-02-24 11:00:00 6.9 10 Sudeste 22 Sudeste 0 -- -- 79
2021-02-24 10:00:00 5 4 Sudoeste 9 Sudeste 0 -- -- 82
2021-02-24 09:00:00 2.7 6 Sudeste 10 Sudeste 0 -- -- 92
2021-02-24 08:00:00 1.5 8 Norte 12 Norte 0 -- -- 94
2021-02-24 07:00:00 2.5 6 Nordeste 15 Nordeste 0 -- -- 92
2021-02-24 06:00:00 1.5 8 Norte 15 Norte 0 -- -- 93
2021-02-24 05:00:00 2.4 4 Norte 12 Este 0 -- -- 89
2021-02-24 04:00:00 2.5 10 Nordeste 15 Norte 0 -- -- 89
2021-02-24 03:00:00 2.3 8 Nordeste 13 Norte 0 -- -- 90
2021-02-24 02:00:00 1.6 11 Norte 13 Norte 0 -- -- 90
2021-02-24 01:00:00 2.4 8 Nordeste 12 Este 0 -- -- 83
2021-02-24 00:00:00 3.7 5 Nordeste 12 Norte 0 -- -- 75
2021-02-23 23:00:00 3.6 9 Norte 15 Norte 0 -- -- 78
2021-02-23 22:00:00 3.1 9 Norte 13 Nordeste 0 -- -- 87
2021-02-23 21:00:00 4.7 7 Norte 12 Norte 0 -- -- 79
2021-02-23 20:00:00 5.6 6 Nordeste 13 Sudeste 0 -- -- 77
2021-02-23 19:00:00 8.4 6 Sudeste 18 Sur 0 -- -- 62
2021-02-23 18:00:00 10.1 10 Sur 24 Sudeste 0 -- -- 56
2021-02-23 17:00:00 10.6 10 Sur 28 Sur 0 -- -- 59
2021-02-23 16:00:00 10 13 Sur 28 Sudoeste 0 -- -- 63
2021-02-23 15:00:00 9.3 9 Sur 26 Sur 0 -- -- 71
2021-02-23 14:00:00 8.4 9 Sur 30 Sur 0 -- -- 72
2021-02-23 13:00:00 8.2 10 Sur 25 Sur 0 -- -- 73
2021-02-23 12:00:00 6.2 9 Sudeste 19 Sudeste 0 -- -- 76
2021-02-23 11:00:00 5.5 6 Sudeste 15 Sudeste 0 -- -- 78
2021-02-23 10:00:00 3.1 6 Sudeste 11 Sudeste 0 -- -- 78
2021-02-23 09:00:00 -0.2 0 Calma 9 Norte 0 -- -- 88
2021-02-23 08:00:00 -0.8 4 Norte 10 Nordeste 0 -- -- 91
2021-02-23 07:00:00 -0.5 6 Norte 11 Norte 0 -- -- 90
2021-02-23 06:00:00 -0.4 9 Norte 13 Norte 0 -- -- 92
2021-02-23 05:00:00 -0.1 9 Norte 14 Norte 0 -- -- 92
2021-02-23 04:00:00 -0.2 10 Norte 15 Norte 0 -- -- 91
2021-02-23 03:00:00 0.2 9 Norte 14 Norte 0 -- -- 89
2021-02-23 02:00:00 1 7 Nordeste 12 Nordeste 0 -- -- 86
2021-02-23 01:00:00 0.8 7 Nordeste 12 Nordeste 0 -- -- 89
2021-02-23 00:00:00 1.2 5 Norte 12 Norte 0 -- -- 87
2021-02-22 23:00:00 1.4 8 Norte 11 Norte 0 -- -- 88
2021-02-22 22:00:00 1.3 8 Norte 14 Norte 0 -- -- 85
2021-02-22 21:00:00 1.8 10 Norte 18 Norte 0 -- -- 80
2021-02-22 20:00:00 3 8 Norte 12 Norte 0 -- -- 78
2021-02-22 19:00:00 5.5 3 Norte 5 Norte 0 -- -- 70
2021-02-22 18:00:00 9.7 3 Noroeste 10 Sur 0 -- -- 40
2021-02-22 17:00:00 10 3 Noroeste 21 Oeste 0 -- -- 43
2021-02-22 16:00:00 9.5 17 Oeste 28 Oeste 0 -- -- 39
2021-02-22 15:00:00 9.1 5 Sudoeste 17 Oeste 0 -- -- 53
2021-02-22 14:00:00 7.7 4 Sudoeste 16 Oeste 0 -- -- 50
2021-02-22 13:00:00 6 4 Oeste 22 Oeste 0 -- -- 66
2021-02-22 12:00:00 4.2 13 Oeste 24 Oeste 0 -- -- 78
2021-02-22 11:00:00 2.7 14 Noroeste 21 Oeste 0 -- -- 82
2021-02-22 10:00:00 0.8 12 Norte 24 Norte 0 -- -- 92
2021-02-22 09:00:00 -0.1 14 Norte 21 Norte 0 -- -- 94
2021-02-22 08:00:00 -0.1 12 Norte 21 Norte 0 -- -- 94
2021-02-22 07:00:00 -0.2 10 Noroeste 19 Norte 0 -- -- 94
2021-02-22 06:00:00 -0.1 13 Norte 19 Noroeste 0 -- -- 92
2021-02-22 05:00:00 0.2 9 Norte 15 Norte 0.2 -- -- 92
2021-02-22 04:00:00 0.6 6 Norte 13 Nordeste 0 -- -- 92
2021-02-22 03:00:00 1.2 7 Norte 17 Norte 0 -- -- 91
2021-02-22 02:00:00 1.9 6 Norte 19 Noroeste 0 -- -- 92
2021-02-22 01:00:00 2 8 Noroeste 23 Noroeste 0 -- -- 93
2021-02-22 00:00:00 2.3 6 Norte 14 Norte 0 -- -- 94
2021-02-21 23:00:00 2.4 5 Noroeste 27 Noroeste 0 -- -- 93
2021-02-21 22:00:00 2.7 8 Noroeste 15 Norte 0 -- -- 93
2021-02-21 21:00:00 2.9 6 Norte 13 Norte 0 -- -- 93
2021-02-21 20:00:00 3 10 Noroeste 21 Noroeste 0 -- -- 94
2021-02-21 19:00:00 3.1 10 Noroeste 28 Noroeste 0 -- -- 95
2021-02-21 18:00:00 3.1 15 Noroeste 32 Oeste 0 -- -- 95
2021-02-21 17:00:00 3.3 10 Noroeste 25 Oeste 0 -- -- 97
2021-02-21 16:00:00 2.9 9 Noroeste 14 Norte 0.6 -- -- 96
2021-02-21 15:00:00 2.2 7 Norte 17 Norte 0 -- -- 95
2021-02-21 14:00:00 1.8 11 Norte 27 Norte 0.2 -- -- 95
2021-02-21 13:00:00 1.7 14 Norte 39 Noroeste 2 -- -- 95
2021-02-21 12:00:00 3.6 24 Oeste 41 Oeste 0.4 -- -- 91
2021-02-21 11:00:00 5.5 10 Sur 23 Sur 1.2 -- -- 97
2021-02-21 10:00:00 5.3 9 Sudeste 31 Sur 1.6 -- -- 94
2021-02-21 09:00:00 5.2 3 Sur 28 Sur 1 -- -- 90
2021-02-21 08:00:00 5.8 12 Sur 26 Sur 0.2 -- -- 83
2021-02-21 07:00:00 6.1 6 Sudeste 22 Sur 0 -- -- 77
2021-02-21 06:00:00 6.3 8 Sur 22 Sur 0 -- -- 71
2021-02-21 05:00:00 4.5 11 Norte 17 Norte 0 -- -- 89
2021-02-21 04:00:00 5 11 Norte 17 Norte 0 -- -- 86
2021-02-21 03:00:00 5.7 5 Nordeste 19 Nordeste 0 -- -- 80
2021-02-21 02:00:00 5.3 12 Norte 16 Norte 0 -- -- 90
2021-02-21 01:00:00 6.2 4 Noroeste 51 Sudoeste 0.2 -- -- 84
2021-02-21 00:00:00 7 15 Sudoeste 43 Sur 0 -- -- 79
2021-02-20 23:00:00 6.5 12 Nordeste 19 Nordeste 0 -- -- 88
2021-02-20 22:00:00 5.9 12 Nordeste 15 Nordeste 0 -- -- 96
2021-02-20 21:00:00 5.8 4 Sudeste 31 Sur 1.6 -- -- 97
2021-02-20 20:00:00 6.1 5 Sur 31 Sur 1.2 -- -- 98
2021-02-20 19:00:00 6.3 13 Sur 28 Sur 1.8 -- -- 99
2021-02-20 18:00:00 6.5 12 Sur 23 Sur 1.8 -- -- 98
2021-02-20 17:00:00 6.6 9 Sur 22 Sur 0.8 -- -- 98
2021-02-20 16:00:00 6.6 10 Sur 24 Sudoeste 0.4 -- -- 95
2021-02-20 15:00:00 6.7 9 Sur 32 Sudeste 0 -- -- 91
2021-02-20 14:00:00 7.1 14 Sur 37 Sudoeste 0.2 -- -- 87
2021-02-20 13:00:00 7 13 Sur 31 Sudoeste 0.2 -- -- 88
2021-02-20 12:00:00 6.8 11 Sur 36 Sur 0 -- -- 82
2021-02-20 11:00:00 6.6 17 Sur 30 Sur 0 -- -- 83
2021-02-20 10:00:00 6.1 9 Sur 32 Sudeste 0 -- -- 86
2021-02-20 09:00:00 6 17 Sudoeste 45 Sudoeste 0 -- -- 87
2021-02-20 08:00:00 5.9 19 Sudoeste 41 Sur 0 -- -- 87
2021-02-20 07:00:00 5.7 16 Sudoeste 40 Sudoeste 0 -- -- 90
2021-02-20 06:00:00 6.3 22 Sudoeste 42 Sudoeste 0 -- -- 88
2021-02-20 05:00:00 6.8 8 Sur 33 Sudeste 0 -- -- 89
2021-02-20 04:00:00 7.2 9 Este 29 Este 0 -- -- 88
2021-02-20 03:00:00 7.5 19 Sudeste 38 Sudeste 0 -- -- 88
2021-02-20 02:00:00 7.5 22 Este 38 Sudeste 0 -- -- 89
2021-02-20 01:00:00 7.4 14 Sudoeste 40 Sudoeste 0 -- -- 88
2021-02-20 00:00:00 7.3 14 Sudoeste 36 Sudoeste 0 -- -- 87
2021-02-19 23:00:00 7.5 17 Sudoeste 37 Sudoeste 0 -- -- 84
2021-02-19 22:00:00 7.5 15 Sudoeste 31 Sur 0 -- -- 83
2021-02-19 21:00:00 7.9 16 Sudoeste 36 Sudoeste 0 -- -- 76
2021-02-19 20:00:00 7.7 11 Sudoeste 25 Sur 0 -- -- 78
2021-02-19 19:00:00 8 6 Sudeste 26 Sudeste 0 -- -- 77
2021-02-19 18:00:00 8.7 8 Sur 23 Este 0 -- -- 75
2021-02-19 17:00:00 8.4 8 Sur 21 Sudeste 0 -- -- 77
2021-02-19 16:00:00 8.3 10 Sur 23 Sur 0 -- -- 76
2021-02-19 15:00:00 8.7 11 Sur 21 Sur 0 -- -- 78
2021-02-19 14:00:00 8.8 8 Sur 36 Sur 0 -- -- 83
2021-02-19 13:00:00 8.7 18 Sudoeste 34 Sudoeste 0 -- -- 87
2021-02-19 12:00:00 8.6 11 Sur 23 Sur 0 -- -- 90
2021-02-19 11:00:00 7.5 8 Sur 18 Sur 0 -- -- 96
2021-02-19 10:00:00 6.4 3 Sudeste 9 Este 0 -- -- 100
2021-02-19 09:00:00 5.2 3 Sudeste 10 Norte 0 -- -- 100
2021-02-19 08:00:00 4.6 5 Nordeste 10 Norte 0 -- -- 100
2021-02-19 07:00:00 4.4 4 Nordeste 9 Este 0 -- -- 99
2021-02-19 06:00:00 4.3 3 Nordeste 10 Norte 0 -- -- 100
2021-02-19 05:00:00 3.7 6 Norte 14 Norte 0 -- -- 100
2021-02-19 04:00:00 2.7 12 Norte 16 Norte 0 -- -- 100
2021-02-19 03:00:00 3.5 10 Norte 15 Norte 0 -- -- 99
2021-02-19 02:00:00 3.4 9 Norte 12 Norte 0 -- -- 98
2021-02-19 01:00:00 3.4 8 Norte 13 Norte 0 -- -- 98
2021-02-19 00:00:00 4 8 Norte 10 Norte 0 -- -- 98
2021-02-18 23:00:00 4.5 3 Sudeste 8 Sur 0 -- -- 97
2021-02-18 22:00:00 5 3 Sur 7 Norte 0 -- -- 94
2021-02-18 21:00:00 6.3 9 Noroeste 21 Noroeste 0 -- -- 87
2021-02-18 20:00:00 6.3 10 Noroeste 21 Noroeste 0 -- -- 89
2021-02-18 19:00:00 6.5 13 Noroeste 23 Noroeste 0 -- -- 90
2021-02-18 18:00:00 6.9 12 Noroeste 32 Oeste 0 -- -- 90
2021-02-18 17:00:00 7.1 19 Oeste 46 Noroeste 0 -- -- 89
2021-02-18 16:00:00 8.1 21 Oeste 32 Oeste 0.2 -- -- 86
2021-02-18 15:00:00 7.1 19 Oeste 37 Oeste 0 -- -- 90
2021-02-18 14:00:00 7.4 25 Oeste 39 Noroeste 0 -- -- 88
2021-02-18 13:00:00 6.8 18 Noroeste 42 Oeste 0.4 -- -- 89
2021-02-18 12:00:00 6.9 8 Noroeste 14 Oeste 0.2 -- -- 93
2021-02-18 11:00:00 5.9 6 Noroeste 22 Noroeste 1 -- -- 97
2021-02-18 10:00:00 6.1 2 Oeste 12 Oeste 0.6 -- -- 98
2021-02-18 09:00:00 6.1 5 Sudoeste 17 Noroeste 2 -- -- 97
2021-02-18 08:00:00 6.5 10 Sudoeste 26 Sudoeste 0.2 -- -- 95
2021-02-18 07:00:00 6.9 12 Sudoeste 27 Sudoeste 0 -- -- 92
2021-02-18 06:00:00 7.1 16 Sudoeste 31 Sudoeste 0 -- -- 90
2021-02-18 05:00:00 7.1 15 Sudoeste 29 Sudoeste 0 -- -- 90
2021-02-18 04:00:00 7.3 12 Sudoeste 23 Sur 0 -- -- 92
2021-02-18 03:00:00 7.4 12 Sudoeste 27 Sudoeste 0 -- -- 93
2021-02-18 02:00:00 7.7 11 Sudoeste 31 Sur 0 -- -- 91
2021-02-18 01:00:00 7.8 14 Sudoeste 27 Sudoeste 0.2 -- -- 91
2021-02-18 00:00:00 7.6 7 Sudoeste 18 Sur 0 -- -- 95
2021-02-17 23:00:00 8 10 Sur 23 Sur 0 -- -- 96
2021-02-17 22:00:00 7.8 5 Sur 19 Sudeste 0.2 -- -- 98
2021-02-17 21:00:00 8 8 Sur 31 Sudoeste 0 -- -- 95
2021-02-17 20:00:00 7.9 15 Sudoeste 36 Sudoeste 0 -- -- 92
2021-02-17 19:00:00 8.1 8 Sudoeste 16 Sudoeste 0 -- -- 94
2021-02-17 18:00:00 8.7 5 Sur 13 Sudoeste 0 -- -- 88
2021-02-17 17:00:00 9 5 Sur 10 Sur 0 -- -- 80
2021-02-17 16:00:00 8.8 3 Sudoeste 10 Oeste 0 -- -- 82
2021-02-17 15:00:00 8.2 3 Este 9 Nordeste 0 -- -- 82
2021-02-17 14:00:00 7.1 4 Nordeste 6 Nordeste 0 -- -- 92
2021-02-17 13:00:00 5.7 2 Sur 10 Este 0 -- -- 100
2021-02-17 12:00:00 4.5 6 Este 10 Sudeste 0 -- -- 100
2021-02-17 11:00:00 3.3 5 Norte 10 Norte 0 -- -- 100
2021-02-17 10:00:00 1.7 9 Norte 10 Norte 0 -- -- 100
2021-02-17 09:00:00 0.4 7 Norte 9 Norte 0 -- -- 100
2021-02-17 08:00:00 -0.5 2 Oeste 12 Norte 0 -- -- 99
2021-02-17 07:00:00 0.2 9 Norte 11 Norte 0 -- -- 99
2021-02-17 06:00:00 -0.3 4 Sur 10 Sur 0 -- -- 97
2021-02-17 05:00:00 0.8 0 Calma 6 Norte 0 -- -- 98
2021-02-17 04:00:00 1.8 4 Nordeste 8 Norte 0 -- -- 98
2021-02-17 03:00:00 2 5 Norte 15 Norte 0 -- -- 98
2021-02-17 02:00:00 2.2 10 Norte 14 Noroeste 0 -- -- 98
2021-02-17 01:00:00 2.1 10 Norte 15 Norte 0 -- -- 98
2021-02-17 00:00:00 2.2 8 Norte 10 Norte 0.2 -- -- 97
2021-02-16 23:00:00 2.8 9 Norte 13 Norte 0 -- -- 96
2021-02-16 22:00:00 4 6 Norte 12 Noroeste 0 -- -- 97
2021-02-16 21:00:00 4.8 4 Norte 13 Norte 0 -- -- 96
2021-02-16 20:00:00 6.4 3 Noroeste 17 Noroeste 0 -- -- 89
2021-02-16 19:00:00 7.4 12 Noroeste 26 Noroeste 0 -- -- 85
2021-02-16 18:00:00 8.1 12 Noroeste 32 Oeste 0 -- -- 85
2021-02-16 17:00:00 8.5 18 Oeste 32 Oeste 0 -- -- 84
2021-02-16 16:00:00 7.5 17 Oeste 33 Oeste 0.2 -- -- 92
2021-02-16 15:00:00 7.5 22 Noroeste 37 Noroeste 0.2 -- -- 90
2021-02-16 14:00:00 7.5 18 Oeste 31 Oeste 0.2 -- -- 95
2021-02-16 13:00:00 7.6 18 Oeste 42 Oeste 0.2 -- -- 92
2021-02-16 12:00:00 7 16 Oeste 28 Oeste 0.2 -- -- 92
2021-02-16 11:00:00 6.9 6 Norte 10 Norte 0 -- -- 84
2021-02-16 10:00:00 6 5 Sudoeste 17 Sudoeste 0 -- -- 87
2021-02-16 09:00:00 5.3 5 Sudoeste 22 Sudoeste 0 -- -- 87
2021-02-16 08:00:00 6.5 17 Sur 29 Sur 0 -- -- 82
2021-02-16 07:00:00 7.2 12 Sudoeste 29 Sudoeste 0 -- -- 78
2021-02-16 06:00:00 6 10 Sudoeste 21 Sudoeste 0 -- -- 82
2021-02-16 05:00:00 3.5 3 Norte 17 Norte 0 -- -- 95
2021-02-16 04:00:00 3.4 12 Norte 16 Norte 0 -- -- 94
2021-02-16 03:00:00 5.4 9 Este 15 Norte 0 -- -- 90
2021-02-16 02:00:00 4.5 8 Nordeste 15 Norte 0 -- -- 92
2021-02-16 01:00:00 4.4 8 Norte 13 Norte 0 -- -- 94
2021-02-16 00:00:00 5.1 4 Este 10 Nordeste 0 -- -- 93
2021-02-15 23:00:00 5.7 3 Nordeste 12 Nordeste 0 -- -- 90
2021-02-15 22:00:00 6.6 6 Norte 16 Este 0 -- -- 88
2021-02-15 21:00:00 9 8 Este 22 Sudeste 0 -- -- 79
2021-02-15 20:00:00 7.9 8 Norte 15 Sur 0 -- -- 82
2021-02-15 19:00:00 10.2 6 Sur 22 Sudeste 0 -- -- 72
2021-02-15 18:00:00 12.2 8 Sur 21 Sur 0 -- -- 65
2021-02-15 17:00:00 12.6 12 Sudeste 25 Sudeste 0 -- -- 64
2021-02-15 16:00:00 12.1 8 Sudeste 26 Sur 0 -- -- 68
2021-02-15 15:00:00 11.1 10 Sudeste 26 Sur 0 -- -- 75
2021-02-15 14:00:00 10.2 8 Sudeste 21 Este 0 -- -- 76
2021-02-15 13:00:00 8.7 9 Sudeste 17 Sudeste 0 -- -- 84
2021-02-15 12:00:00 7.5 7 Sur 17 Sur 0 -- -- 89
2021-02-15 11:00:00 6.3 10 Este 15 Sudeste 0 -- -- 98
2021-02-15 10:00:00 5.1 3 Sudeste 14 Sudeste 0 -- -- 100
2021-02-15 09:00:00 4.2 0 Calma 6 Nordeste 0 -- -- 100
2021-02-15 08:00:00 3.3 4 Nordeste 11 Norte 0 -- -- 100
2021-02-15 07:00:00 1.7 7 Norte 9 Nordeste 0 -- -- 100
2021-02-15 06:00:00 2.1 4 Nordeste 8 Nordeste 0 -- -- 99
2021-02-15 05:00:00 3 3 Nordeste 10 Norte 0 -- -- 99
2021-02-15 04:00:00 3.6 8 Norte 10 Norte 0 -- -- 98
2021-02-15 03:00:00 4.7 6 Norte 10 Norte 0 -- -- 99
2021-02-15 02:00:00 4.9 5 Nordeste 10 Norte 0 -- -- 98
2021-02-15 01:00:00 5.2 5 Nordeste 14 Norte 0 -- -- 99
2021-02-15 00:00:00 5 7 Norte 12 Norte 0 -- -- 99
2021-02-14 23:00:00 5.5 9 Norte 12 Norte 0 -- -- 97
2021-02-14 22:00:00 6.4 5 Norte 9 Norte 0 -- -- 97
2021-02-14 21:00:00 6.5 3 Nordeste 9 Nordeste 0 -- -- 96
2021-02-14 20:00:00 7.3 6 Este 11 Este 0 -- -- 94
2021-02-14 19:00:00 7.4 5 Este 9 Este 0 -- -- 93
2021-02-14 18:00:00 7.3 4 Sudeste 10 Sur 0 -- -- 92
2021-02-14 17:00:00 7.1 4 Sur 12 Sudeste 0 -- -- 93
2021-02-14 16:00:00 6.8 6 Sudeste 15 Sur 0 -- -- 94
2021-02-14 15:00:00 7 6 Sur 15 Sur 0 -- -- 93
2021-02-14 14:00:00 7.3 5 Sur 17 Sur 0 -- -- 93
2021-02-14 13:00:00 7.5 6 Sur 13 Sur 0 -- -- 92
2021-02-14 12:00:00 6.7 2 Sur 7 Sudeste 0 -- -- 96
2021-02-14 11:00:00 6.1 3 Sur 11 Sudeste 0 -- -- 98
2021-02-14 10:00:00 4.1 2 Sur 4 Norte 0 -- -- 100
2021-02-14 09:00:00 3 3 Nordeste 9 Norte 0 -- -- 99
2021-02-14 08:00:00 2.4 3 Nordeste 7 Norte 0 -- -- 99
2021-02-14 07:00:00 2.6 4 Norte 9 Norte 0 -- -- 99
2021-02-14 06:00:00 3 5 Norte 15 Norte 0 -- -- 98
2021-02-14 05:00:00 2.9 12 Norte 15 Norte 0 -- -- 98
2021-02-14 04:00:00 2.8 10 Norte 14 Norte 0 -- -- 98
2021-02-14 03:00:00 3 12 Norte 15 Norte 0 -- -- 97
2021-02-14 02:00:00 3.2 9 Norte 18 Norte 0 -- -- 96
2021-02-14 01:00:00 3.6 13 Norte 17 Norte 0 -- -- 96
2021-02-14 00:00:00 3.5 9 Norte 13 Norte 0 -- -- 97
2021-02-13 23:00:00 4 2 Noroeste 18 Norte 0 -- -- 97
2021-02-13 22:00:00 4.6 8 Norte 14 Norte 0 -- -- 96
2021-02-13 21:00:00 5.3 9 Norte 11 Norte 0 -- -- 96
2021-02-13 20:00:00 6.7 0 Calma 6 Oeste 0 -- -- 91
2021-02-13 19:00:00 8.4 3 Sudoeste 16 Oeste 0 -- -- 86
2021-02-13 18:00:00 9.5 12 Oeste 32 Oeste 0 -- -- 81
2021-02-13 17:00:00 11 16 Oeste 34 Oeste 0 -- -- 78
2021-02-13 16:00:00 9.9 19 Oeste 37 Oeste 0 -- -- 82
2021-02-13 15:00:00 9 23 Oeste 32 Oeste 0 -- -- 84
2021-02-13 14:00:00 8.3 20 Oeste 35 Oeste 0 -- -- 85
2021-02-13 13:00:00 8.3 19 Oeste 29 Oeste 0 -- -- 86
2021-02-13 08:00:00 -- -- -- -- -- -- -- -- --
2021-02-13 07:00:00 -- -- -- -- -- -- -- -- --
2021-02-13 06:00:00 -- -- -- -- -- -- -- -- --
2021-02-13 05:00:00 -- -- -- -- -- -- -- -- --
2021-02-13 04:00:00 2.8 6 Norte 15 Noroeste 0 -- -- 96
2021-02-13 03:00:00 2.8 9 Norte 18 Norte 0 -- -- 96
2021-02-13 02:00:00 2.2 10 Norte 13 Norte 0 -- -- 96
2021-02-13 01:00:00 2.5 10 Norte 13 Norte 0 -- -- 97
2021-02-13 00:00:00 3 7 Norte 12 Norte 0 -- -- 97
2021-02-12 23:00:00 3.3 7 Norte 10 Norte 0 -- -- 96
2021-02-12 22:00:00 3.9 5 Norte 9 Norte 0 -- -- 94
2021-02-12 21:00:00 6 0 Calma 16 Noroeste 0 -- -- 86
2021-02-12 20:00:00 6.5 3 Noroeste 20 Oeste 0 -- -- 85
2021-02-12 19:00:00 7.6 9 Noroeste 27 Oeste 0 -- -- 78
2021-02-12 18:00:00 8.6 16 Noroeste 34 Oeste 0 -- -- 76
2021-02-12 17:00:00 9.6 20 Oeste 33 Oeste 0 -- -- 73
2021-02-12 16:00:00 9.2 22 Oeste 38 Oeste 0 -- -- 76
2021-02-12 15:00:00 9.2 26 Oeste 39 Oeste 0 -- -- 77
2021-02-12 14:00:00 9.3 27 Noroeste 47 Oeste 0 -- -- 80
2021-02-12 13:00:00 8.8 18 Noroeste 37 Noroeste 0 -- -- 82
2021-02-12 12:00:00 7.8 23 Noroeste 48 Noroeste 0 -- -- 87
2021-02-12 11:00:00 7 21 Noroeste 36 Noroeste 0 -- -- 92
2021-02-12 10:00:00 6.1 22 Noroeste 37 Oeste 0 -- -- 95
2021-02-12 09:00:00 5.5 19 Noroeste 45 Oeste 0 -- -- 96
2021-02-12 08:00:00 5.8 23 Noroeste 43 Oeste 0 -- -- 93
2021-02-12 07:00:00 6.1 23 Noroeste 39 Noroeste 0.2 -- -- 93
2021-02-12 06:00:00 6.4 19 Noroeste 32 Noroeste 0.8 -- -- 98
2021-02-12 05:00:00 6.3 6 Noroeste 49 Oeste 0.4 -- -- 91
2021-02-12 04:00:00 6.9 17 Oeste 50 Oeste 0.6 -- -- 96
2021-02-12 03:00:00 7.1 11 Noroeste 32 Noroeste 0.2 -- -- 93
2021-02-12 02:00:00 7.2 13 Noroeste 27 Noroeste 0.4 -- -- 93
2021-02-12 01:00:00 7.8 20 Noroeste 35 Noroeste 2.8 -- -- 96
2021-02-12 00:00:00 8.1 0 Calma 4 Este 1.2 -- -- 100
2021-02-11 23:00:00 8.4 0 Calma 5 Sur 0.4 -- -- 100
2021-02-11 22:00:00 8.7 3 Sudeste 6 Sudoeste 0 -- -- 99
2021-02-11 21:00:00 9.2 4 Sudoeste 13 Sudoeste 0 -- -- 99
2021-02-11 20:00:00 9.3 5 Sudoeste 11 Sur 0.4 -- -- 99
2021-02-11 19:00:00 9.2 2 Sudeste 8 Sur 0.2 -- -- 97
2021-02-11 18:00:00 9.1 5 Este 12 Nordeste 0 -- -- 93
2021-02-11 17:00:00 8.9 4 Nordeste 9 Este 0 -- -- 90
2021-02-11 16:00:00 8.7 4 Nordeste 8 Sudeste 0 -- -- 88
2021-02-11 15:00:00 9.3 4 Sudeste 13 Sudeste 0 -- -- 85
2021-02-11 14:00:00 8.3 3 Nordeste 10 Este 0.2 -- -- 87
2021-02-11 13:00:00 7.5 3 Sur 9 Sur 0 -- -- 89
2021-02-11 12:00:00 6.2 4 Sudeste 7 Sudeste 0 -- -- 97
2021-02-11 11:00:00 4.6 2 Nordeste 8 Norte 0 -- -- 99
2021-02-11 10:00:00 4 4 Nordeste 7 Nordeste 0 -- -- 100
2021-02-11 09:00:00 3.7 4 Nordeste 5 Nordeste 0 -- -- 100
2021-02-11 08:00:00 3.5 0 Calma 6 Norte 0 -- -- 100
2021-02-11 07:00:00 3.7 5 Norte 6 Noroeste 0.2 -- -- 99
2021-02-11 06:00:00 3.8 3 Norte 8 Norte 0.2 -- -- 98
2021-02-11 05:00:00 4.1 8 Nordeste 10 Nordeste 0 -- -- 98
2021-02-11 04:00:00 3.9 3 Oeste 5 Oeste 0.4 -- -- 98
2021-02-11 03:00:00 3.9 0 Calma 10 Norte 0 -- -- 97
2021-02-11 02:00:00 3.8 9 Norte 13 Norte 0 -- -- 96
2021-02-11 01:00:00 4 7 Noroeste 15 Noroeste 0 -- -- 89
2021-02-11 00:00:00 3.5 5 Norte 12 Norte 0 -- -- 92
2021-02-10 23:00:00 3.2 10 Norte 14 Norte 0 -- -- 93
2021-02-10 22:00:00 3 8 Norte 9 Norte 0 -- -- 96
2021-02-10 21:00:00 3.3 3 Nordeste 8 Norte 0 -- -- 96
2021-02-10 20:00:00 3.6 4 Norte 6 Norte 0 -- -- 94
2021-02-10 19:00:00 4.6 2 Nordeste 4 Norte 0 -- -- 91
2021-02-10 18:00:00 5.3 0 Calma 17 Norte 0 -- -- 85
2021-02-10 17:00:00 5.8 6 Noroeste 15 Norte 0 -- -- 81
2021-02-10 16:00:00 5.7 11 Norte 32 Oeste 0 -- -- 82
2021-02-10 15:00:00 5 11 Noroeste 36 Oeste 0 -- -- 84
2021-02-10 14:00:00 4.3 22 Oeste 37 Oeste 0 -- -- 86
2021-02-10 13:00:00 4.1 17 Oeste 36 Noroeste 0 -- -- 89
2021-02-10 12:00:00 3.4 23 Noroeste 53 Oeste 0.6 -- -- 88
2021-02-10 11:00:00 2.4 23 Noroeste 55 Noroeste 0.8 -- -- 89
2021-02-10 10:00:00 1.7 33 Noroeste 61 Norte 0.6 -- -- 91
2021-02-10 09:00:00 1.4 20 Noroeste 55 Noroeste 0.4 -- -- 91
2021-02-10 08:00:00 1.2 33 Noroeste 61 Oeste 0.8 -- -- 94
2021-02-10 07:00:00 1.5 30 Noroeste 53 Noroeste 1.4 -- -- 95
2021-02-10 06:00:00 1.4 28 Noroeste 52 Noroeste 1 -- -- 96
2021-02-10 05:00:00 1.2 29 Noroeste 52 Noroeste 0.6 -- -- 97
2021-02-10 04:00:00 0.7 23 Noroeste 41 Noroeste 0.2 -- -- 97
2021-02-10 03:00:00 0.7 20 Noroeste 40 Noroeste 0 -- -- 98
2021-02-10 02:00:00 0.1 8 Oeste 14 Oeste 0 -- -- 99
2021-02-10 01:00:00 0.9 3 Sudoeste 9 Sur 0.6 -- -- 98
2021-02-10 00:00:00 1.5 2 Oeste 15 Sudoeste 0.6 -- -- 98
2021-02-09 23:00:00 1.8 8 Oeste 39 Noroeste 0 -- -- 96
2021-02-09 22:00:00 1.9 23 Noroeste 43 Noroeste 0 -- -- 96
2021-02-09 21:00:00 1.6 21 Noroeste 35 Oeste 0.2 -- -- 96
2021-02-09 20:00:00 1 7 Oeste 23 Oeste 0.6 -- -- 97
2021-02-09 19:00:00 1.6 6 Noroeste 18 Noroeste 1.2 -- -- 94
2021-02-09 18:00:00 3.3 14 Noroeste 24 Noroeste 0 -- -- 88
2021-02-09 17:00:00 4.6 16 Oeste 27 Oeste 0 -- -- 79
2021-02-09 16:00:00 4.4 13 Oeste 38 Oeste 0.2 -- -- 88
2021-02-09 15:00:00 4.9 16 Oeste 36 Oeste 0 -- -- 90
2021-02-09 14:00:00 3 14 Oeste 29 Oeste 0.4 -- -- 98
2021-02-09 13:00:00 1.7 5 Sudoeste 11 Oeste 0.4 -- -- 99
2021-02-09 12:00:00 0.8 0 Calma 23 Norte 1.8 -- -- 99
2021-02-09 11:00:00 0.9 8 Norte 22 Noroeste 3.2 -- -- 99
2021-02-09 10:00:00 2.3 7 Noroeste 22 Oeste 3 -- -- 97
2021-02-09 09:00:00 3.7 0 Calma 12 Sur 2 -- -- 100
2021-02-09 08:00:00 3.5 4 Sur 13 Sudoeste 1 -- -- 100
2021-02-09 07:00:00 3.2 2 Sur 6 Sudeste 0.6 -- -- 100
2021-02-09 06:00:00 2.9 4 Sudeste 8 Sur 0.2 -- -- 99
2021-02-09 05:00:00 2.6 3 Sur 9 Sur 0 -- -- 99
2021-02-09 04:00:00 3 3 Sur 8 Sur 0 -- -- 99
2021-02-09 03:00:00 3.3 2 Sudeste 4 Este 0.8 -- -- 99
2021-02-09 02:00:00 3.4 3 Sudoeste 19 Noroeste 0.8 -- -- 98
2021-02-09 01:00:00 3.6 12 Noroeste 22 Noroeste 0 -- -- 97
2021-02-09 00:00:00 3.8 8 Oeste 34 Oeste 0 -- -- 96
2021-02-08 23:00:00 4.1 21 Oeste 40 Oeste 0.4 -- -- 96
2021-02-08 22:00:00 4.2 17 Oeste 33 Oeste 0.4 -- -- 99
2021-02-08 21:00:00 4.2 8 Oeste 25 Oeste 0.6 -- -- 97
2021-02-08 20:00:00 4.2 9 Oeste 24 Noroeste 0 -- -- 95
2021-02-08 19:00:00 4.3 5 Noroeste 39 Noroeste 0 -- -- 92
2021-02-08 18:00:00 4.6 12 Noroeste 36 Noroeste 0 -- -- 90
2021-02-08 17:00:00 4 8 Noroeste 30 Noroeste 0 -- -- 95
2021-02-08 16:00:00 3.8 18 Noroeste 33 Noroeste 0.2 -- -- 94
2021-02-08 15:00:00 3.6 21 Oeste 41 Oeste 0.6 -- -- 95
2021-02-08 14:00:00 4 25 Oeste 44 Oeste 0.2 -- -- 95
2021-02-08 13:00:00 3.5 17 Oeste 40 Noroeste 0 -- -- 96
2021-02-08 12:00:00 3.6 17 Oeste 31 Oeste 0.2 -- -- 97
2021-02-08 11:00:00 3 19 Oeste 39 Oeste 0.4 -- -- 98
2021-02-08 10:00:00 3.1 12 Oeste 27 Noroeste 0 -- -- 98
2021-02-08 09:00:00 2.3 13 Oeste 31 Oeste 1 -- -- 99
2021-02-08 08:00:00 2.6 9 Oeste 21 Noroeste 0.8 -- -- 99
2021-02-08 07:00:00 2.6 13 Oeste 21 Oeste 0.4 -- -- 100
2021-02-08 06:00:00 2.4 12 Noroeste 21 Noroeste 0.6 -- -- 100
2021-02-08 05:00:00 2 4 Oeste 7 Norte 0.8 -- -- 100
2021-02-08 04:00:00 2 6 Norte 8 Norte 0.2 -- -- 100
2021-02-08 03:00:00 2 4 Norte 6 Norte -- -- -- 100
2021-02-08 02:00:00 1.9 4 Nordeste 10 Norte 0 -- -- 100
2021-02-08 01:00:00 2.2 6 Nordeste 10 Nordeste 1.2 -- -- 100
2021-02-08 00:00:00 2.1 5 Norte 10 Nordeste 0.8 -- -- 100
2021-02-07 23:00:00 1.9 4 Nordeste 7 Nordeste 0.8 -- -- 100
2021-02-07 22:00:00 1.9 2 Este 9 Este 0.6 -- -- 100
2021-02-07 21:00:00 1.8 0 Calma 7 Noroeste 0.4 -- -- 100
2021-02-07 20:00:00 1.7 4 Noroeste 12 Noroeste 0.4 -- -- 100
2021-02-07 19:00:00 1.5 8 Oeste 14 Oeste 0.2 -- -- 99
2021-02-07 18:00:00 2.1 9 Oeste 16 Oeste 0.2 -- -- 98
2021-02-07 17:00:00 2.5 8 Noroeste 22 Oeste 0 -- -- 95
2021-02-07 16:00:00 2.1 17 Oeste 29 Noroeste 0 -- -- 93
2021-02-07 15:00:00 2.1 17 Oeste 38 Oeste 0 -- -- 91
2021-02-07 14:00:00 2.2 14 Oeste 32 Oeste 0.2 -- -- 88
2021-02-07 13:00:00 1.8 20 Oeste 32 Oeste 0 -- -- 83
2021-02-07 12:00:00 1.4 11 Oeste 23 Oeste 0 -- -- 85
2021-02-07 11:00:00 0.5 6 Noroeste 22 Oeste 0 -- -- 88
2021-02-07 10:00:00 0 11 Norte 20 Norte 0 -- -- 89
2021-02-07 09:00:00 -0.5 14 Norte 21 Norte 0 -- -- 90
2021-02-07 08:00:00 -0.6 10 Norte 23 Norte 0 -- -- 92
2021-02-07 07:00:00 -0.7 10 Norte 15 Norte 0 -- -- 91
2021-02-07 06:00:00 -1.5 9 Norte 18 Norte 0 -- -- 94
2021-02-07 05:00:00 -1.7 12 Norte 17 Norte 0 -- -- 95
2021-02-07 04:00:00 -1.4 6 Norte 14 Norte 0 -- -- 95
2021-02-07 03:00:00 -1.6 7 Norte 10 Noroeste 0 -- -- 94
2021-02-07 02:00:00 -0.7 4 Norte 12 Noroeste 0 -- -- 92
2021-02-07 01:00:00 -0.8 5 Noroeste 9 Noroeste 0 -- -- 92
2021-02-07 00:00:00 -0.7 6 Oeste 20 Norte 0 -- -- 89
2021-02-06 23:00:00 0.8 10 Noroeste 20 Norte 0 -- -- 77
2021-02-06 22:00:00 1.9 12 Noroeste 23 Noroeste 0 -- -- 71
2021-02-06 21:00:00 2 12 Noroeste 22 Norte 0 -- -- 74
2021-02-06 20:00:00 2.3 12 Norte 27 Norte 0 -- -- 75
2021-02-06 19:00:00 3.3 8 Norte 19 Norte 0 -- -- 81
2021-02-06 18:00:00 4.8 7 Norte 21 Norte 0 -- -- 74
2021-02-06 17:00:00 5.6 12 Norte 21 Norte 0 -- -- 72
2021-02-06 16:00:00 5.8 8 Noroeste 25 Norte 0 -- -- 75
2021-02-06 15:00:00 5.5 8 Nordeste 25 Noroeste 0 -- -- 81
2021-02-06 14:00:00 5.1 12 Noroeste 25 Oeste 0 -- -- 94
2021-02-06 13:00:00 5.3 13 Norte 21 Norte 0 -- -- 89
2021-02-06 12:00:00 4 12 Oeste 17 Noroeste 0 -- -- 98
2021-02-06 11:00:00 4.2 6 Noroeste 26 Noroeste 0 -- -- 92
2021-02-06 10:00:00 3.5 9 Oeste 23 Norte 0 -- -- 97
2021-02-06 09:00:00 3.2 6 Sudoeste 19 Sur 0.2 -- -- 97
2021-02-06 08:00:00 3.5 10 Norte 36 Nordeste 0 -- -- 96
2021-02-06 07:00:00 3.7 21 Nordeste 46 Nordeste 0 -- -- 96
2021-02-06 06:00:00 3.6 33 Nordeste 55 Nordeste 0 -- -- 97
2021-02-06 05:00:00 3.4 39 Nordeste 61 Nordeste 0.2 -- -- 99
2021-02-06 04:00:00 3.2 37 Nordeste 48 Nordeste 1 -- -- 99
2021-02-06 03:00:00 3.4 27 Nordeste 48 Nordeste 0.2 -- -- 98
2021-02-06 02:00:00 3.8 37 Nordeste 59 Nordeste 0 -- -- 96
2021-02-06 01:00:00 3.5 30 Nordeste 59 Nordeste 1 -- -- 98
2021-02-06 00:00:00 4.4 39 Nordeste 54 Nordeste 0.4 -- -- 95
2021-02-05 23:00:00 6 19 Nordeste 44 Nordeste 0 -- -- 88
2021-02-05 22:00:00 5.9 18 Nordeste 34 Nordeste 0 -- -- 88
2021-02-05 21:00:00 6 15 Nordeste 30 Nordeste 1.4 -- -- 89
2021-02-05 20:00:00 6 3 Oeste 17 Norte 0.2 -- -- 95
2021-02-05 19:00:00 6.4 14 Norte 20 Norte 0 -- -- 90
2021-02-05 18:00:00 6.7 6 Norte 10 Norte 0 -- -- 93
2021-02-05 17:00:00 6.8 5 Norte 10 Norte 0 -- -- 95
2021-02-05 16:00:00 6.7 3 Norte 11 Este 0.2 -- -- 97
2021-02-05 15:00:00 6.3 10 Este 17 Este 0.6 -- -- 96
2021-02-05 14:00:00 6.3 12 Este 27 Este 0 -- -- 93
2021-02-05 13:00:00 6.3 14 Este 25 Este 0 -- -- 90
2021-02-05 12:00:00 5.6 12 Este 17 Este 0.2 -- -- 95
2021-02-05 11:00:00 4.1 2 Nordeste 5 Nordeste 0 -- -- 100
2021-02-05 10:00:00 3.5 0 Calma 2 Sudoeste 0 -- -- 99
2021-02-05 09:00:00 3.4 0 Calma 7 Oeste 0.2 -- -- 100
2021-02-05 08:00:00 3.4 0 Calma 5 Norte 0 -- -- 99
2021-02-05 07:00:00 3.6 4 Norte 8 Norte 0 -- -- 99
2021-02-05 06:00:00 3.4 0 Calma 6 Nordeste 0 -- -- 99
2021-02-05 05:00:00 3.5 4 Nordeste 6 Nordeste 0 -- -- 99
2021-02-05 04:00:00 3.5 0 Calma 6 Nordeste 0 -- -- 99
2021-02-05 03:00:00 3.6 2 Nordeste 4 Norte 0 -- -- 99
2021-02-05 02:00:00 3.5 0 Calma 3 Sudoeste 0 -- -- 98
2021-02-05 01:00:00 3.6 0 Calma 5 Norte 0 -- -- 98
2021-02-05 00:00:00 3.6 3 Norte 6 Norte 0 -- -- 98
2021-02-04 23:00:00 3.5 4 Nordeste 5 Nordeste 0 -- -- 98
2021-02-04 22:00:00 3.6 6 Nordeste 8 Nordeste 0 -- -- 99
2021-02-04 21:00:00 3.6 3 Este 6 Sur 0.8 -- -- 98
2021-02-04 20:00:00 3.9 0 Calma 6 Sudeste 0.2 -- -- 98
2021-02-04 19:00:00 3.9 0 Calma 8 Sudeste 0 -- -- 98
2021-02-04 18:00:00 4 3 Sur 7 Sur 0.2 -- -- 96
2021-02-04 17:00:00 4.2 3 Sudeste 11 Sur 0.2 -- -- 95
2021-02-04 16:00:00 4.4 3 Sur 6 Sur 0.4 -- -- 96
2021-02-04 15:00:00 4.5 2 Sur 6 Sur 0.4 -- -- 95
2021-02-04 14:00:00 4.8 3 Sudeste 14 Sur 0.8 -- -- 95
2021-02-04 13:00:00 5.1 5 Sudeste 19 Sur 0.2 -- -- 97
2021-02-04 12:00:00 4.9 6 Sudeste 12 Sudeste 0 -- -- 97
2021-02-04 11:00:00 4.5 8 Sudeste 13 Sudeste 0 -- -- 98
2021-02-04 10:00:00 4.1 7 Este 11 Sudeste 0 -- -- 99
2021-02-04 09:00:00 3.7 6 Nordeste 10 Este 0 -- -- 99
2021-02-04 08:00:00 3.8 6 Este 9 Este 0.2 -- -- 99
2021-02-04 07:00:00 4 5 Este 6 Este 0 -- -- 99
2021-02-04 06:00:00 3.8 4 Nordeste 8 Nordeste 0 -- -- 98
2021-02-04 05:00:00 3.6 5 Nordeste 10 Nordeste 0 -- -- 97
2021-02-04 04:00:00 3.3 6 Norte 12 Norte 0 -- -- 97
2021-02-04 03:00:00 3.3 5 Norte 9 Noroeste 0 -- -- 97
2021-02-04 02:00:00 3.3 2 Nordeste 9 Sudeste 0 -- -- 96
2021-02-04 01:00:00 3.9 2 Sur 21 Noroeste 0 -- -- 92
2021-02-04 00:00:00 4.8 8 Noroeste 20 Noroeste 0 -- -- 90
2021-02-03 23:00:00 5.3 12 Noroeste 20 Noroeste 0 -- -- 89
2021-02-03 22:00:00 4.7 8 Norte 12 Noroeste 0 -- -- 96
2021-02-03 21:00:00 4.7 2 Este 4 Nordeste 0.2 -- -- 96
2021-02-03 20:00:00 5.2 0 Calma 8 Norte 0 -- -- 93
2021-02-03 19:00:00 5.8 3 Nordeste 15 Noroeste 0 -- -- 90
2021-02-03 18:00:00 6.4 5 Noroeste 15 Oeste 0 -- -- 86
2021-02-03 17:00:00 6.5 13 Noroeste 23 Noroeste 0.2 -- -- 88
2021-02-03 16:00:00 7.3 8 Noroeste 19 Oeste 0.4 -- -- 86
2021-02-03 15:00:00 7.9 5 Noroeste 24 Noroeste 0 -- -- 82
2021-02-03 14:00:00 8 11 Noroeste 28 Oeste 0 -- -- 76
2021-02-03 13:00:00 7.2 10 Oeste 28 Oeste 0 -- -- 81
2021-02-03 12:00:00 7.7 16 Oeste 27 Noroeste 0 -- -- 77
2021-02-03 11:00:00 6.8 17 Oeste 35 Noroeste 0 -- -- 84
2021-02-03 10:00:00 6.1 12 Oeste 23 Oeste 0 -- -- 84
2021-02-03 09:00:00 5.1 10 Oeste 20 Noroeste 0 -- -- 90
2021-02-03 08:00:00 5.3 15 Oeste 36 Noroeste 0 -- -- 89
2021-02-03 07:00:00 5.7 21 Noroeste 49 Noroeste 0.4 -- -- 95
2021-02-03 06:00:00 6.2 22 Oeste 44 Oeste 0.2 -- -- 96
2021-02-03 05:00:00 6.8 27 Oeste 46 Noroeste 0.2 -- -- 97
2021-02-03 04:00:00 7.8 9 Oeste 24 Oeste 0.4 -- -- 100
2021-02-03 03:00:00 7.2 3 Sudeste 8 Sur 0.2 -- -- 100
2021-02-03 02:00:00 7.3 4 Sur 15 Sur 0.6 -- -- 100
2021-02-03 01:00:00 7.4 5 Sudoeste 17 Sudoeste 0.8 -- -- 100
2021-02-03 00:00:00 7.5 10 Sur 23 Sur 0.2 -- -- 100
2021-02-02 23:00:00 7.5 9 Sudoeste 21 Sudoeste 0.6 -- -- 100
2021-02-02 22:00:00 7.4 9 Sudoeste 19 Sur 0.4 -- -- 100
2021-02-02 21:00:00 7.4 4 Sudoeste 16 Sur 0.2 -- -- 100
2021-02-02 20:00:00 7.6 6 Sudoeste 14 Sudoeste 0 -- -- 99
2021-02-02 19:00:00 7.8 5 Oeste 22 Sudoeste 1.6 -- -- 99
2021-02-02 18:00:00 7.9 6 Sudoeste 26 Sur 0.8 -- -- 98
2021-02-02 17:00:00 8.4 12 Sudoeste 26 Sudoeste 0.6 -- -- 97
2021-02-02 16:00:00 9 12 Sudoeste 22 Sudoeste 0.2 -- -- 94
2021-02-02 15:00:00 9 7 Sur 15 Sur 0 -- -- 95
2021-02-02 14:00:00 8.4 4 Sur 8 Sur 0.2 -- -- 96
2021-02-02 13:00:00 7.2 3 Norte 10 Norte 1.4 -- -- 98
2021-02-02 12:00:00 7.2 4 Este 15 Sudeste 0 -- -- 96
2021-02-02 11:00:00 7.3 3 Sur 10 Sudeste 0 -- -- 98
2021-02-02 10:00:00 6.5 2 Sur 8 Norte 0 -- -- 99
2021-02-02 09:00:00 6.3 3 Sur 11 Sudeste 0 -- -- 98
2021-02-02 08:00:00 6.4 6 Norte 8 Norte 0 -- -- 98
2021-02-02 07:00:00 7 0 Calma 14 Oeste 0 -- -- 96
2021-02-02 06:00:00 7.7 8 Noroeste 14 Oeste 0 -- -- 95
2021-02-02 05:00:00 7.9 8 Oeste 20 Oeste 0 -- -- 96
2021-02-02 04:00:00 8.1 12 Oeste 24 Oeste 0 -- -- 96
2021-02-02 03:00:00 8.1 10 Oeste 19 Noroeste 0 -- -- 97
2021-02-02 02:00:00 8.1 8 Oeste 16 Sudoeste 0 -- -- 98
2021-02-02 01:00:00 8.1 8 Sudoeste 17 Sudoeste 0 -- -- 99
2021-02-02 00:00:00 8.1 7 Oeste 16 Oeste 0 -- -- 99
2021-02-01 23:00:00 8 3 Sudoeste 8 Oeste 0.2 -- -- 99
2021-02-01 22:00:00 7.8 4 Sudoeste 10 Sudoeste 0.4 -- -- 98
2021-02-01 21:00:00 7.8 5 Sudoeste 15 Oeste 0.2 -- -- 96
2021-02-01 20:00:00 8.5 14 Oeste 23 Oeste 0 -- -- 91
2021-02-01 19:00:00 8.9 12 Oeste 33 Oeste 0 -- -- 83
2021-02-01 18:00:00 9.2 18 Oeste 44 Oeste 0 -- -- 80
2021-02-01 17:00:00 9.3 27 Noroeste 46 Oeste 0 -- -- 83
2021-02-01 16:00:00 10.1 23 Noroeste 58 Oeste 0 -- -- 80
2021-02-01 15:00:00 10.7 22 Noroeste 57 Oeste 0 -- -- 77
2021-02-01 14:00:00 9.9 24 Noroeste 60 Noroeste 0 -- -- 81
2021-02-01 13:00:00 10 23 Noroeste 58 Oeste 0 -- -- 82
2021-02-01 12:00:00 9.1 32 Noroeste 63 Oeste 0 -- -- 86
2021-02-01 11:00:00 7.6 29 Noroeste 64 Oeste 0 -- -- 92
2021-02-01 10:00:00 7.3 28 Noroeste 50 Norte 0 -- -- 92
2021-02-01 09:00:00 7 26 Noroeste 55 Noroeste 0 -- -- 92
2021-02-01 08:00:00 7 28 Noroeste 62 Norte 0 -- -- 92
2021-02-01 07:00:00 7 26 Noroeste 59 Oeste 0 -- -- 88
2021-02-01 06:00:00 7.1 29 Noroeste 60 Noroeste 0 -- -- 86
2021-02-01 05:00:00 7.1 35 Noroeste 57 Oeste 0 -- -- 87
2021-02-01 04:00:00 7 36 Noroeste 57 Noroeste 0 -- -- 88
2021-02-01 03:00:00 6.7 33 Noroeste 58 Noroeste 0 -- -- 89
2021-02-01 02:00:00 6.7 32 Oeste 59 Noroeste 0 -- -- 90
2021-02-01 01:00:00 6.7 32 Oeste 59 Oeste 0 -- -- 89
2021-02-01 00:00:00 7 33 Noroeste 56 Oeste 0 -- -- 85
2021-01-31 23:00:00 7.2 32 Noroeste 58 Noroeste 0.2 -- -- 83
2021-01-31 22:00:00 7.5 25 Noroeste 57 Oeste 0.2 -- -- 91
2021-01-31 21:00:00 8 30 Oeste 53 Oeste 0.6 -- -- 92
2021-01-31 20:00:00 8.2 28 Oeste 47 Oeste 0.2 -- -- 94
2021-01-31 19:00:00 8.6 24 Oeste 52 Oeste 0.2 -- -- 90
2021-01-31 18:00:00 10.1 28 Oeste 49 Oeste 0 -- -- 80
2021-01-31 17:00:00 10.5 30 Oeste 64 Noroeste 0 -- -- 84
2021-01-31 16:00:00 11.7 46 Oeste 72 Oeste 0 -- -- 77
2021-01-31 15:00:00 11.3 44 Noroeste 75 Noroeste 0 -- -- 82
2021-01-31 14:00:00 10.3 42 Noroeste 73 Noroeste 0 -- -- 85
2021-01-31 13:00:00 9.6 36 Noroeste 71 Noroeste 0 -- -- 94
2021-01-31 12:00:00 8.7 32 Noroeste 60 Noroeste 0 -- -- 96
2021-01-31 11:00:00 7.9 29 Noroeste 57 Noroeste 0 -- -- 96
2021-01-31 10:00:00 7 31 Noroeste 65 Noroeste 0 -- -- 94
2021-01-31 09:00:00 6 30 Noroeste 62 Oeste 0.2 -- -- 94
2021-01-31 08:00:00 5.4 29 Noroeste 55 Norte 0 -- -- 94
2021-01-31 07:00:00 4.2 37 Noroeste 56 Noroeste 0.2 -- -- 97
2021-01-31 06:00:00 3.8 35 Noroeste 58 Noroeste 0 -- -- 95
2021-01-31 05:00:00 3.4 39 Noroeste 74 Noroeste 1.6 -- -- 92
2021-01-31 04:00:00 3.8 43 Noroeste 73 Noroeste 0 -- -- 90
2021-01-31 03:00:00 4 46 Noroeste 71 Noroeste 0 -- -- 90
2021-01-31 02:00:00 3.6 38 Noroeste 77 Noroeste 0 -- -- 93
2021-01-31 01:00:00 3.7 36 Noroeste 69 Noroeste 0.6 -- -- 89
2021-01-31 00:00:00 3.8 40 Noroeste 68 Noroeste 0.2 -- -- 93
2021-01-30 23:00:00 3.2 33 Noroeste 63 Noroeste 0.8 -- -- 94
2021-01-30 22:00:00 3.2 36 Noroeste 59 Noroeste 0.2 -- -- 92
2021-01-30 21:00:00 3.1 30 Noroeste 50 Noroeste 0 -- -- 92
2021-01-30 20:00:00 2.8 27 Noroeste 59 Oeste 0.4 -- -- 92
2021-01-30 19:00:00 3.4 33 Noroeste 57 Oeste 0 -- -- 91
2021-01-30 18:00:00 3.4 28 Noroeste 62 Noroeste 0.2 -- -- 90
2021-01-30 17:00:00 3.4 34 Noroeste 55 Oeste 0.8 -- -- 93
2021-01-30 16:00:00 3.9 22 Noroeste 57 Oeste 1.8 -- -- 92
2021-01-30 15:00:00 4.2 29 Oeste 48 Oeste 0.6 -- -- 96
2021-01-30 14:00:00 2.8 30 Oeste 45 Oeste 1 -- -- 95
2021-01-30 13:00:00 2.4 24 Oeste 44 Oeste 1.2 -- -- 96
2021-01-30 12:00:00 2.1 25 Oeste 52 Oeste 2.4 -- -- 96
2021-01-30 11:00:00 3.4 31 Oeste 62 Oeste 0.4 -- -- 93
2021-01-30 10:00:00 4.1 38 Noroeste 60 Oeste 0.2 -- -- 91
2021-01-30 09:00:00 4.1 26 Oeste 48 Oeste 0.6 -- -- 92
2021-01-30 08:00:00 4.3 9 Oeste 46 Oeste 0 -- -- 93
2021-01-30 07:00:00 4.8 25 Oeste 49 Oeste 0 -- -- 92
2021-01-30 06:00:00 5.1 28 Noroeste 58 Noroeste 0.8 -- -- 88
2021-01-30 05:00:00 5.6 28 Oeste 55 Oeste 0.4 -- -- 94
2021-01-30 04:00:00 5.7 10 Oeste 29 Noroeste 0.2 -- -- 98
2021-01-30 03:00:00 5.8 19 Oeste 45 Noroeste 0.2 -- -- 95
2021-01-30 02:00:00 6.1 28 Noroeste 84 Oeste 3.4 -- -- 93
2021-01-30 01:00:00 7.4 0 Calma 14 Noroeste 1.4 -- -- 93
2021-01-30 00:00:00 7.7 4 Sur 14 Oeste 0 -- -- 85